L18 weather

Fallbrook Community Airpark
Fallbrook, California, United States

Public forecast

Using degrees Fahrenheit for public forecast. Weather courtesy of forecast.io.

Closest aviation weather report (METAR) to Fallbrook Community Airpark

Closest report is Camp Pendleton MCAS (Munn Field) Airport, 6.1 nm (11.3 km) WSW. Retrieved 2020/04/06 20:55 UTC (15 minutes ago):

KNFG 062055Z 19016G26KT 2SM +RA SCT012 BKN025 OVC035 14/11 A2996 RMK AO2 PK WND 18026/2011 SLP145 P0010 60012 T01390111 53003

Closest aviation forecast (TAF) to Fallbrook Community Airpark

Closest forecast is Mc Clellan-Palomar Airport, 13.6 nm (25.3 km) S. Retrieved 2020/04/06 18:34 UTC (3 hours ago):

TAF KCRQ 061732Z 0618/0718 16011KT 5SM -RA BR SCT015 BKN025 TEMPO 0618/0620 18016G26KT 2SM -SHRA BR BKN015 FM062000 18010KT 5SM -RA SCT015 OVC022 TEMPO 0621/0701 2SM TSRA OVC009CB FM070300 23006KT P6SM -SHRA SCT015 BKN025